createdAt,value
2018-04-16T00:00:08.709Z,1020.69125495
2018-04-16T00:00:20.932Z,1020.69125495
2018-04-16T00:00:33.222Z,1020.69125495
2018-04-16T00:00:45.446Z,1020.69125495
2018-04-16T00:00:57.617Z,1020.69125495
2018-04-16T00:01:09.815Z,1020.79284659
2018-04-16T00:01:21.994Z,1020.79284659
2018-04-16T00:01:34.179Z,1020.79284659
2018-04-16T00:01:46.355Z,1020.79284659
2018-04-16T00:01:58.538Z,1020.79284659
2018-04-16T00:02:10.723Z,1020.79284659
2018-04-16T00:02:22.902Z,1020.79284659
2018-04-16T00:02:35.075Z,1020.79284659
2018-04-16T00:02:47.267Z,1020.79284659
2018-04-16T00:02:59.441Z,1020.79284659
2018-04-16T00:03:11.636Z,1020.82671048
2018-04-16T00:03:23.843Z,1020.82671048
2018-04-16T00:03:36.002Z,1020.82671048
2018-04-16T00:03:48.178Z,1020.82671048
2018-04-16T00:04:00.352Z,1020.79284659
2018-04-16T00:04:12.517Z,1020.79284659
2018-04-16T00:04:24.729Z,1020.79284659
2018-04-16T00:04:36.977Z,1020.79284659
2018-04-16T00:04:49.162Z,1020.79284659
2018-04-16T00:05:01.333Z,1020.82671048
2018-04-16T00:05:13.498Z,1020.82671048
2018-04-16T00:05:25.652Z,1020.82671048
2018-04-16T00:05:37.890Z,1020.82671048
2018-04-16T00:05:50.088Z,1020.82671048
2018-04-16T00:06:02.555Z,1020.69125495
2018-04-16T00:06:14.761Z,1020.69125495
2018-04-16T00:06:26.961Z,1020.69125495
2018-04-16T00:06:39.133Z,1020.69125495
2018-04-16T00:06:51.291Z,1020.69125495
2018-04-16T00:07:03.455Z,1020.79284659
2018-04-16T00:07:15.642Z,1020.79284659
2018-04-16T00:07:27.798Z,1020.79284659
2018-04-16T00:07:39.960Z,1020.79284659
2018-04-16T00:07:52.104Z,1020.79284659
2018-04-16T00:08:04.266Z,1020.65739107
2018-04-16T00:08:16.441Z,1020.65739107
2018-04-16T00:08:28.600Z,1020.65739107
2018-04-16T00:08:40.789Z,1020.65739107
2018-04-16T00:08:53.017Z,1020.65739107
2018-04-16T00:09:05.180Z,1020.72511883
2018-04-16T00:09:17.352Z,1020.72511883
2018-04-16T00:09:29.565Z,1020.72511883
2018-04-16T00:09:41.709Z,1020.72511883
2018-04-16T00:09:53.888Z,1020.72511883
2018-04-16T00:10:06.222Z,1020.86057436
2018-04-16T00:10:18.399Z,1020.86057436
2018-04-16T00:10:30.601Z,1020.86057436
2018-04-16T00:10:42.794Z,1020.86057436
2018-04-16T00:10:54.944Z,1020.86057436
2018-04-16T00:11:07.106Z,1020.82671048
2018-04-16T00:11:19.284Z,1020.82671048
2018-04-16T00:11:31.442Z,1020.82671048
2018-04-16T00:11:43.608Z,1020.82671048
2018-04-16T00:11:55.778Z,1020.82671048
2018-04-16T00:12:07.932Z,1020.75898271
2018-04-16T00:12:20.150Z,1020.75898271
2018-04-16T00:12:32.326Z,1020.75898271
2018-04-16T00:12:44.489Z,1020.75898271
2018-04-16T00:12:56.655Z,1020.75898271
2018-04-16T00:13:08.830Z,1020.69125495
2018-04-16T00:13:21.224Z,1020.69125495
2018-04-16T00:13:33.614Z,1020.69125495
2018-04-16T00:13:45.777Z,1020.69125495
2018-04-16T00:13:57.928Z,1020.69125495
2018-04-16T00:14:10.093Z,1020.72511883
2018-04-16T00:14:22.261Z,1020.72511883
2018-04-16T00:14:34.441Z,1020.72511883
2018-04-16T00:14:46.597Z,1020.72511883
2018-04-16T00:14:58.778Z,1020.72511883
2018-04-16T00:15:10.957Z,1020.62352719
2018-04-16T00:15:23.134Z,1020.62352719
2018-04-16T00:15:35.292Z,1020.62352719
2018-04-16T00:15:47.479Z,1020.62352719
2018-04-16T00:15:59.657Z,1020.62352719
2018-04-16T00:16:11.820Z,1020.62352719
2018-04-16T00:16:24.000Z,1020.62352719
2018-04-16T00:16:36.170Z,1020.62352719
2018-04-16T00:16:48.331Z,1020.62352719
2018-04-16T00:17:00.489Z,1020.62352719
2018-04-16T00:17:12.700Z,1020.62352719
2018-04-16T00:17:24.864Z,1020.62352719
2018-04-16T00:17:37.043Z,1020.62352719
2018-04-16T00:17:49.232Z,1020.62352719
2018-04-16T00:18:01.420Z,1020.5896633
2018-04-16T00:18:13.716Z,1020.5896633
2018-04-16T00:18:25.895Z,1020.5896633
2018-04-16T00:18:38.325Z,1020.5896633
2018-04-16T00:18:50.492Z,1020.5896633
2018-04-16T00:19:02.679Z,1020.5896633
2018-04-16T00:19:14.857Z,1020.5896633
2018-04-16T00:19:27.035Z,1020.5896633
2018-04-16T00:19:39.209Z,1020.5896633
2018-04-16T00:19:51.378Z,1020.5896633
2018-04-16T00:20:03.536Z,1020.5896633
2018-04-16T00:20:15.697Z,1020.5896633
2018-04-16T00:20:27.878Z,1020.5896633
2018-04-16T00:20:40.027Z,1020.5896633
2018-04-16T00:20:52.202Z,1020.5896633
2018-04-16T00:21:04.363Z,1020.5896633
2018-04-16T00:21:16.508Z,1020.5896633
2018-04-16T00:21:28.683Z,1020.5896633
2018-04-16T00:21:41.038Z,1020.5896633
2018-04-16T00:21:53.232Z,1020.5896633
2018-04-16T00:22:05.405Z,1020.52193554
2018-04-16T00:22:17.590Z,1020.52193554
2018-04-16T00:22:29.743Z,1020.52193554
2018-04-16T00:22:41.947Z,1020.52193554
2018-04-16T00:22:54.136Z,1020.52193554
2018-04-16T00:23:06.290Z,1020.52193554
2018-04-16T00:23:18.470Z,1020.52193554
2018-04-16T00:23:30.641Z,1020.52193554
2018-04-16T00:23:42.811Z,1020.52193554
2018-04-16T00:23:54.973Z,1020.52193554
2018-04-16T00:24:07.232Z,1020.45420778
2018-04-16T00:24:19.390Z,1020.45420778
2018-04-16T00:24:31.591Z,1020.45420778
2018-04-16T00:24:43.788Z,1020.45420778
2018-04-16T00:24:55.931Z,1020.45420778
2018-04-16T00:25:08.088Z,1020.4203439
2018-04-16T00:25:20.263Z,1020.4203439
2018-04-16T00:25:32.510Z,1020.4203439
2018-04-16T00:25:44.683Z,1020.4203439
2018-04-16T00:25:56.865Z,1020.4203439
2018-04-16T00:26:09.022Z,1020.48807166
2018-04-16T00:26:21.175Z,1020.48807166
2018-04-16T00:26:33.351Z,1020.48807166
2018-04-16T00:26:45.519Z,1020.48807166
2018-04-16T00:26:57.703Z,1020.48807166
2018-04-16T00:27:09.860Z,1020.38648001
2018-04-16T00:27:22.019Z,1020.38648001
2018-04-16T00:27:34.202Z,1020.38648001
2018-04-16T00:27:46.365Z,1020.38648001
2018-04-16T00:27:58.540Z,1020.38648001
2018-04-16T00:28:10.718Z,1020.48807166
2018-04-16T00:28:22.872Z,1020.48807166
2018-04-16T00:28:35.037Z,1020.48807166
2018-04-16T00:28:47.255Z,1020.48807166
2018-04-16T00:28:59.433Z,1020.48807166
2018-04-16T00:29:11.644Z,1020.45420778
2018-04-16T00:29:23.806Z,1020.45420778
2018-04-16T00:29:36.084Z,1020.45420778
2018-04-16T00:29:48.243Z,1020.45420778
2018-04-16T00:30:00.397Z,1020.45420778
2018-04-16T00:30:12.567Z,1020.45420778
2018-04-16T00:30:24.723Z,1020.45420778
2018-04-16T00:30:36.881Z,1020.45420778
2018-04-16T00:30:49.047Z,1020.45420778
2018-04-16T00:31:01.219Z,1020.38648001
2018-04-16T00:31:13.381Z,1020.38648001
2018-04-16T00:31:25.556Z,1020.38648001
2018-04-16T00:31:37.708Z,1020.38648001
2018-04-16T00:31:49.890Z,1020.38648001
2018-04-16T00:32:02.066Z,1020.45420778
2018-04-16T00:32:14.228Z,1020.45420778
2018-04-16T00:32:26.388Z,1020.45420778
2018-04-16T00:32:38.548Z,1020.45420778
2018-04-16T00:32:50.706Z,1020.45420778
2018-04-16T00:33:02.880Z,1020.35261613
2018-04-16T00:33:15.083Z,1020.35261613
2018-04-16T00:33:27.241Z,1020.35261613
2018-04-16T00:33:39.431Z,1020.35261613
2018-04-16T00:33:51.601Z,1020.35261613
2018-04-16T00:34:03.758Z,1020.4203439
2018-04-16T00:34:16.090Z,1020.4203439
2018-04-16T00:34:28.263Z,1020.4203439
2018-04-16T00:34:40.444Z,1020.4203439
2018-04-16T00:34:52.626Z,1020.4203439
2018-04-16T00:35:04.842Z,1020.4203439
2018-04-16T00:35:17.021Z,1020.4203439
2018-04-16T00:35:29.185Z,1020.4203439
2018-04-16T00:35:41.363Z,1020.4203439
2018-04-16T00:35:53.607Z,1020.4203439
2018-04-16T00:36:05.756Z,1020.38648001
2018-04-16T00:36:17.917Z,1020.38648001
2018-04-16T00:36:30.073Z,1020.38648001
2018-04-16T00:36:42.243Z,1020.38648001
2018-04-16T00:36:54.389Z,1020.38648001
2018-04-16T00:37:06.543Z,1020.45420778
2018-04-16T00:37:18.751Z,1020.45420778
2018-04-16T00:37:30.925Z,1020.45420778
2018-04-16T00:37:43.076Z,1020.45420778
2018-04-16T00:37:55.246Z,1020.45420778
2018-04-16T00:38:07.414Z,1020.45420778
2018-04-16T00:38:19.606Z,1020.45420778
2018-04-16T00:38:31.776Z,1020.45420778
2018-04-16T00:38:43.964Z,1020.45420778
2018-04-16T00:38:56.138Z,1020.45420778
2018-04-16T00:39:08.284Z,1020.45420778
2018-04-16T00:39:20.519Z,1020.45420778
2018-04-16T00:39:32.676Z,1020.45420778
2018-04-16T00:39:44.869Z,1020.45420778
2018-04-16T00:39:57.040Z,1020.45420778
2018-04-16T00:40:09.207Z,1020.4203439
2018-04-16T00:40:21.365Z,1020.4203439
2018-04-16T00:40:33.524Z,1020.4203439
2018-04-16T00:40:45.706Z,1020.4203439
2018-04-16T00:40:57.884Z,1020.4203439
2018-04-16T00:41:10.047Z,1020.4203439
2018-04-16T00:41:22.246Z,1020.4203439
2018-04-16T00:41:34.704Z,1020.4203439
2018-04-16T00:41:46.874Z,1020.4203439
2018-04-16T00:41:59.027Z,1020.4203439
2018-04-16T00:42:11.175Z,1020.4203439
2018-04-16T00:42:23.345Z,1020.4203439
2018-04-16T00:42:35.523Z,1020.4203439
2018-04-16T00:42:47.682Z,1020.4203439
2018-04-16T00:42:59.865Z,1020.4203439
2018-04-16T00:43:12.041Z,1020.45420778
2018-04-16T00:43:24.195Z,1020.45420778
2018-04-16T00:43:36.359Z,1020.45420778
2018-04-16T00:43:48.508Z,1020.45420778
2018-04-16T00:44:00.674Z,1020.48807166
2018-04-16T00:44:12.838Z,1020.48807166
2018-04-16T00:44:25.007Z,1020.48807166
2018-04-16T00:44:37.156Z,1020.48807166
2018-04-16T00:44:49.321Z,1020.48807166
2018-04-16T00:45:01.487Z,1020.52193554
2018-04-16T00:45:13.656Z,1020.52193554
2018-04-16T00:45:25.832Z,1020.52193554
2018-04-16T00:45:37.984Z,1020.52193554
2018-04-16T00:45:50.216Z,1020.52193554
2018-04-16T00:46:02.396Z,1020.45420778
2018-04-16T00:46:14.552Z,1020.45420778
2018-04-16T00:46:26.733Z,1020.45420778
2018-04-16T00:46:38.961Z,1020.45420778
2018-04-16T00:46:51.128Z,1020.45420778
2018-04-16T00:47:03.279Z,1020.45420778
2018-04-16T00:47:15.443Z,1020.45420778
2018-04-16T00:47:27.664Z,1020.45420778
2018-04-16T00:47:40.070Z,1020.45420778
2018-04-16T00:47:52.277Z,1020.45420778
2018-04-16T00:48:04.542Z,1020.4203439
2018-04-16T00:48:16.728Z,1020.4203439
2018-04-16T00:48:28.873Z,1020.4203439
2018-04-16T00:48:41.085Z,1020.4203439
2018-04-16T00:48:53.244Z,1020.4203439
2018-04-16T00:49:05.407Z,1020.48807166
2018-04-16T00:49:17.583Z,1020.48807166
2018-04-16T00:49:29.741Z,1020.48807166
2018-04-16T00:49:41.923Z,1020.48807166
2018-04-16T00:49:54.321Z,1020.48807166
2018-04-16T00:50:06.474Z,1020.52193554
2018-04-16T00:50:18.653Z,1020.52193554
2018-04-16T00:50:30.803Z,1020.52193554
2018-04-16T00:50:42.966Z,1020.52193554
2018-04-16T00:50:55.137Z,1020.52193554
2018-04-16T00:51:07.290Z,1020.55579942
2018-04-16T00:51:19.514Z,1020.55579942
2018-04-16T00:51:31.690Z,1020.55579942
2018-04-16T00:51:43.838Z,1020.55579942
2018-04-16T00:51:55.989Z,1020.55579942
2018-04-16T00:52:08.178Z,1020.48807166
2018-04-16T00:52:20.339Z,1020.48807166
2018-04-16T00:52:32.514Z,1020.48807166
2018-04-16T00:52:44.662Z,1020.48807166
2018-04-16T00:52:56.830Z,1020.48807166
2018-04-16T00:53:09.310Z,1020.55579942
2018-04-16T00:53:21.702Z,1020.55579942
2018-04-16T00:53:33.881Z,1020.55579942
2018-04-16T00:53:46.042Z,1020.55579942
2018-04-16T00:53:58.220Z,1020.55579942
2018-04-16T00:54:10.390Z,1020.52193554
2018-04-16T00:54:22.553Z,1020.52193554
2018-04-16T00:54:34.781Z,1020.52193554
2018-04-16T00:54:46.994Z,1020.52193554
2018-04-16T00:54:59.158Z,1020.52193554
2018-04-16T00:55:11.338Z,1020.45420778
2018-04-16T00:55:23.554Z,1020.45420778
2018-04-16T00:55:35.730Z,1020.45420778
2018-04-16T00:55:47.903Z,1020.45420778
2018-04-16T00:56:00.064Z,1020.45420778
2018-04-16T00:56:12.212Z,1020.45420778
2018-04-16T00:56:24.391Z,1020.45420778
2018-04-16T00:56:36.596Z,1020.45420778
2018-04-16T00:56:48.757Z,1020.45420778
2018-04-16T00:57:00.911Z,1020.45420778
2018-04-16T00:57:13.083Z,1020.45420778
2018-04-16T00:57:25.259Z,1020.45420778
2018-04-16T00:57:37.416Z,1020.45420778
2018-04-16T00:57:49.583Z,1020.45420778
2018-04-16T00:58:01.732Z,1020.38648001
2018-04-16T00:58:13.878Z,1020.38648001
2018-04-16T00:58:26.044Z,1020.38648001
2018-04-16T00:58:38.251Z,1020.38648001
2018-04-16T00:58:50.417Z,1020.38648001
2018-04-16T00:59:02.651Z,1020.38648001
2018-04-16T00:59:14.837Z,1020.38648001
2018-04-16T00:59:26.999Z,1020.38648001
2018-04-16T00:59:39.215Z,1020.38648001
2018-04-16T00:59:51.377Z,1020.38648001
2018-04-16T01:00:03.545Z,1020.48807166
2018-04-16T01:00:15.749Z,1020.48807166
2018-04-16T01:00:27.981Z,1020.48807166
2018-04-16T01:00:40.170Z,1020.48807166
2018-04-16T01:00:52.387Z,1020.48807166
2018-04-16T01:01:04.589Z,1020.38648001
2018-04-16T01:01:16.759Z,1020.38648001
2018-04-16T01:01:28.953Z,1020.38648001
2018-04-16T01:01:41.112Z,1020.38648001
2018-04-16T01:01:53.293Z,1020.38648001
2018-04-16T01:02:05.472Z,1020.45420778
2018-04-16T01:02:17.636Z,1020.45420778
2018-04-16T01:02:29.803Z,1020.45420778
2018-04-16T01:02:41.985Z,1020.45420778
2018-04-16T01:02:54.146Z,1020.45420778
2018-04-16T01:03:06.318Z,1020.45420778
2018-04-16T01:03:18.491Z,1020.45420778
2018-04-16T01:03:30.656Z,1020.45420778
2018-04-16T01:03:42.829Z,1020.45420778
2018-04-16T01:03:55.007Z,1020.45420778
2018-04-16T01:04:07.208Z,1020.45420778
2018-04-16T01:04:19.405Z,1020.45420778
2018-04-16T01:04:31.567Z,1020.45420778
2018-04-16T01:04:43.763Z,1020.45420778
2018-04-16T01:04:55.920Z,1020.45420778
2018-04-16T01:05:08.166Z,1020.48807166
2018-04-16T01:05:20.345Z,1020.48807166
2018-04-16T01:05:32.595Z,1020.48807166
2018-04-16T01:05:44.789Z,1020.48807166
2018-04-16T01:05:56.953Z,1020.48807166
2018-04-16T01:06:09.103Z,1020.48807166
2018-04-16T01:06:21.283Z,1020.48807166
2018-04-16T01:06:33.452Z,1020.48807166
2018-04-16T01:06:45.625Z,1020.48807166
2018-04-16T01:06:57.778Z,1020.48807166
2018-04-16T01:07:09.950Z,1020.35261613
2018-04-16T01:07:22.192Z,1020.35261613
2018-04-16T01:07:34.391Z,1020.35261613
2018-04-16T01:07:46.553Z,1020.35261613
2018-04-16T01:07:58.743Z,1020.35261613
2018-04-16T01:08:10.927Z,1020.4203439
2018-04-16T01:08:23.110Z,1020.4203439
2018-04-16T01:08:35.279Z,1020.4203439
2018-04-16T01:08:47.468Z,1020.4203439
2018-04-16T01:08:59.619Z,1020.4203439
2018-04-16T01:09:11.794Z,1020.45420778
2018-04-16T01:09:23.966Z,1020.45420778
2018-04-16T01:09:36.137Z,1020.45420778
2018-04-16T01:09:48.367Z,1020.45420778
2018-04-16T01:10:00.536Z,1020.48807166
2018-04-16T01:10:12.713Z,1020.48807166
2018-04-16T01:10:24.879Z,1020.48807166
2018-04-16T01:10:37.130Z,1020.48807166
2018-04-16T01:10:49.295Z,1020.48807166
2018-04-16T01:11:01.474Z,1020.45420778
2018-04-16T01:11:13.645Z,1020.45420778
2018-04-16T01:11:25.832Z,1020.45420778
2018-04-16T01:11:37.981Z,1020.45420778
2018-04-16T01:11:50.182Z,1020.45420778
2018-04-16T01:12:02.334Z,1020.48807166
2018-04-16T01:12:14.497Z,1020.48807166
2018-04-16T01:12:26.655Z,1020.48807166
2018-04-16T01:12:38.826Z,1020.48807166
2018-04-16T01:12:50.981Z,1020.48807166
2018-04-16T01:13:03.137Z,1020.48807166
2018-04-16T01:13:15.325Z,1020.48807166
2018-04-16T01:13:27.730Z,1020.48807166
2018-04-16T01:13:40.134Z,1020.48807166
2018-04-16T01:13:52.300Z,1020.48807166
2018-04-16T01:14:04.460Z,1020.52193554
2018-04-16T01:14:16.663Z,1020.52193554
2018-04-16T01:14:28.827Z,1020.52193554
2018-04-16T01:14:41.033Z,1020.52193554
2018-04-16T01:14:53.244Z,1020.52193554
2018-04-16T01:15:05.399Z,1020.45420778
2018-04-16T01:15:17.579Z,1020.45420778
2018-04-16T01:15:29.747Z,1020.45420778
2018-04-16T01:15:41.945Z,1020.45420778
2018-04-16T01:15:54.125Z,1020.45420778
2018-04-16T01:16:06.359Z,1020.52193554
2018-04-16T01:16:18.516Z,1020.52193554
2018-04-16T01:16:30.685Z,1020.52193554
2018-04-16T01:16:42.844Z,1020.52193554
2018-04-16T01:16:55.002Z,1020.52193554
2018-04-16T01:17:07.173Z,1020.45420778
2018-04-16T01:17:19.386Z,1020.45420778
2018-04-16T01:17:31.557Z,1020.45420778
2018-04-16T01:17:43.728Z,1020.45420778
2018-04-16T01:17:55.879Z,1020.45420778
2018-04-16T01:18:08.267Z,1020.45420778
2018-04-16T01:18:20.422Z,1020.45420778
2018-04-16T01:18:32.799Z,1020.45420778
2018-04-16T01:18:44.964Z,1020.45420778
2018-04-16T01:18:57.144Z,1020.45420778
2018-04-16T01:19:09.304Z,1020.45420778
2018-04-16T01:19:21.473Z,1020.45420778
2018-04-16T01:19:33.672Z,1020.45420778
2018-04-16T01:19:45.846Z,1020.45420778
2018-04-16T01:19:58.063Z,1020.45420778
2018-04-16T01:20:10.242Z,1020.45420778
2018-04-16T01:20:22.416Z,1020.45420778
2018-04-16T01:20:34.570Z,1020.45420778
2018-04-16T01:20:46.729Z,1020.45420778
2018-04-16T01:20:58.879Z,1020.45420778
2018-04-16T01:21:11.013Z,1020.5896633
2018-04-16T01:21:23.185Z,1020.5896633
2018-04-16T01:21:35.398Z,1020.5896633
2018-04-16T01:21:47.683Z,1020.5896633
2018-04-16T01:21:59.849Z,1020.5896633
2018-04-16T01:22:12.036Z,1020.52193554
2018-04-16T01:22:24.200Z,1020.52193554
2018-04-16T01:22:36.416Z,1020.52193554
2018-04-16T01:22:48.584Z,1020.52193554
2018-04-16T01:23:00.752Z,1020.52193554
2018-04-16T01:23:12.921Z,1020.52193554
2018-04-16T01:23:25.076Z,1020.52193554
2018-04-16T01:23:37.278Z,1020.52193554
2018-04-16T01:23:49.436Z,1020.52193554
2018-04-16T01:24:01.598Z,1020.55579942
2018-04-16T01:24:13.769Z,1020.55579942
2018-04-16T01:24:25.937Z,1020.55579942
2018-04-16T01:24:38.124Z,1020.55579942
2018-04-16T01:24:50.299Z,1020.55579942
2018-04-16T01:25:02.465Z,1020.5896633
2018-04-16T01:25:14.681Z,1020.5896633
2018-04-16T01:25:26.834Z,1020.5896633
2018-04-16T01:25:39.073Z,1020.5896633
2018-04-16T01:25:51.246Z,1020.5896633
2018-04-16T01:26:03.428Z,1020.45420778
2018-04-16T01:26:15.606Z,1020.45420778
2018-04-16T01:26:27.787Z,1020.45420778
2018-04-16T01:26:39.990Z,1020.45420778
2018-04-16T01:26:52.149Z,1020.45420778
2018-04-16T01:27:04.307Z,1020.52193554
2018-04-16T01:27:16.673Z,1020.52193554
2018-04-16T01:27:28.857Z,1020.52193554
2018-04-16T01:27:41.007Z,1020.52193554
2018-04-16T01:27:53.200Z,1020.52193554
2018-04-16T01:28:05.395Z,1020.55579942
2018-04-16T01:28:17.587Z,1020.55579942
2018-04-16T01:28:29.795Z,1020.55579942
2018-04-16T01:28:41.962Z,1020.55579942
2018-04-16T01:28:54.187Z,1020.55579942
2018-04-16T01:29:06.377Z,1020.52193554
2018-04-16T01:29:18.536Z,1020.52193554
2018-04-16T01:29:30.713Z,1020.52193554
2018-04-16T01:29:42.880Z,1020.52193554
2018-04-16T01:29:55.034Z,1020.52193554
2018-04-16T01:30:07.208Z,1020.48807166
2018-04-16T01:30:19.378Z,1020.48807166
2018-04-16T01:30:31.531Z,1020.48807166
2018-04-16T01:30:43.697Z,1020.48807166
2018-04-16T01:30:55.844Z,1020.48807166
2018-04-16T01:31:08.008Z,1020.62352719
2018-04-16T01:31:20.186Z,1020.62352719
2018-04-16T01:31:32.359Z,1020.62352719
2018-04-16T01:31:44.568Z,1020.62352719
2018-04-16T01:31:56.722Z,1020.62352719
2018-04-16T01:32:08.875Z,1020.52193554
2018-04-16T01:32:21.103Z,1020.52193554
2018-04-16T01:32:33.267Z,1020.52193554
2018-04-16T01:32:45.464Z,1020.52193554
2018-04-16T01:32:57.636Z,1020.52193554
2018-04-16T01:33:09.784Z,1020.45420778
2018-04-16T01:33:21.945Z,1020.45420778
2018-04-16T01:33:34.111Z,1020.45420778
2018-04-16T01:33:46.279Z,1020.45420778
2018-04-16T01:33:58.434Z,1020.45420778
2018-04-16T01:34:10.601Z,1020.52193554
2018-04-16T01:34:22.930Z,1020.52193554
2018-04-16T01:34:35.105Z,1020.52193554
2018-04-16T01:34:47.263Z,1020.52193554
2018-04-16T01:34:59.424Z,1020.52193554
2018-04-16T01:35:11.585Z,1020.55579942
2018-04-16T01:35:23.754Z,1020.55579942
2018-04-16T01:35:35.911Z,1020.55579942
2018-04-16T01:35:48.064Z,1020.55579942
2018-04-16T01:36:00.214Z,1020.38648001
2018-04-16T01:36:12.370Z,1020.38648001
2018-04-16T01:36:24.541Z,1020.38648001
2018-04-16T01:36:36.727Z,1020.38648001
2018-04-16T01:36:48.884Z,1020.38648001
2018-04-16T01:37:01.064Z,1020.52193554
2018-04-16T01:37:13.263Z,1020.52193554
2018-04-16T01:37:25.492Z,1020.52193554
2018-04-16T01:37:37.690Z,1020.52193554
2018-04-16T01:37:49.913Z,1020.52193554
2018-04-16T01:38:02.093Z,1020.45420778
2018-04-16T01:38:14.258Z,1020.45420778
2018-04-16T01:38:26.416Z,1020.45420778
2018-04-16T01:38:38.584Z,1020.45420778
2018-04-16T01:38:50.740Z,1020.45420778
2018-04-16T01:39:02.925Z,1020.45420778
2018-04-16T01:39:15.247Z,1020.45420778
2018-04-16T01:39:27.503Z,1020.45420778
2018-04-16T01:39:39.830Z,1020.45420778
2018-04-16T01:39:52.011Z,1020.45420778
2018-04-16T01:40:04.220Z,1020.38648001
2018-04-16T01:40:16.395Z,1020.38648001
2018-04-16T01:40:28.576Z,1020.38648001
2018-04-16T01:40:40.746Z,1020.38648001
2018-04-16T01:40:52.913Z,1020.38648001
2018-04-16T01:41:05.228Z,1020.45420778
2018-04-16T01:41:17.379Z,1020.45420778
2018-04-16T01:41:29.556Z,1020.45420778
2018-04-16T01:41:41.691Z,1020.45420778
2018-04-16T01:41:53.909Z,1020.45420778
2018-04-16T01:42:06.093Z,1020.38648001
2018-04-16T01:42:18.261Z,1020.38648001
2018-04-16T01:42:30.446Z,1020.38648001
2018-04-16T01:42:42.596Z,1020.38648001
2018-04-16T01:42:54.751Z,1020.38648001
2018-04-16T01:43:06.946Z,1020.4203439
2018-04-16T01:43:19.100Z,1020.4203439
2018-04-16T01:43:31.269Z,1020.4203439
2018-04-16T01:43:43.448Z,1020.4203439
2018-04-16T01:43:55.639Z,1020.4203439
2018-04-16T01:44:07.833Z,1020.4203439
2018-04-16T01:44:19.974Z,1020.4203439
2018-04-16T01:44:32.134Z,1020.4203439
2018-04-16T01:44:44.314Z,1020.4203439
2018-04-16T01:44:56.486Z,1020.4203439
2018-04-16T01:45:08.649Z,1020.35261613
2018-04-16T01:45:20.800Z,1020.35261613
2018-04-16T01:45:32.955Z,1020.35261613
2018-04-16T01:45:45.123Z,1020.35261613
2018-04-16T01:45:57.267Z,1020.35261613
2018-04-16T01:46:09.505Z,1020.28488837
2018-04-16T01:46:21.664Z,1020.28488837
2018-04-16T01:46:33.837Z,1020.28488837
2018-04-16T01:46:46.019Z,1020.28488837
2018-04-16T01:46:58.207Z,1020.28488837
2018-04-16T01:47:10.377Z,1020.31875225
2018-04-16T01:47:22.541Z,1020.31875225
2018-04-16T01:47:34.696Z,1020.31875225
2018-04-16T01:47:46.853Z,1020.31875225
2018-04-16T01:47:59.023Z,1020.31875225
2018-04-16T01:48:11.295Z,1020.4203439
2018-04-16T01:48:23.457Z,1020.4203439
2018-04-16T01:48:35.635Z,1020.4203439
2018-04-16T01:48:47.806Z,1020.4203439
2018-04-16T01:49:00.014Z,1020.4203439
2018-04-16T01:49:12.177Z,1020.45420778
2018-04-16T01:49:24.357Z,1020.45420778
2018-04-16T01:49:36.578Z,1020.45420778
2018-04-16T01:49:48.841Z,1020.45420778
2018-04-16T01:50:01.034Z,1020.35261613
2018-04-16T01:50:13.247Z,1020.35261613
2018-04-16T01:50:25.423Z,1020.35261613
2018-04-16T01:50:37.593Z,1020.35261613
2018-04-16T01:50:49.745Z,1020.35261613
2018-04-16T01:51:01.945Z,1020.35261613
2018-04-16T01:51:14.226Z,1020.35261613
2018-04-16T01:51:26.371Z,1020.35261613
2018-04-16T01:51:38.536Z,1020.35261613
2018-04-16T01:51:50.719Z,1020.35261613
2018-04-16T01:52:02.872Z,1020.31875225
2018-04-16T01:52:15.044Z,1020.31875225
2018-04-16T01:52:27.193Z,1020.31875225
2018-04-16T01:52:39.387Z,1020.31875225
2018-04-16T01:52:51.558Z,1020.31875225
2018-04-16T01:53:03.722Z,1020.25102449
2018-04-16T01:53:15.895Z,1020.25102449
2018-04-16T01:53:28.077Z,1020.25102449
2018-04-16T01:53:40.243Z,1020.25102449
2018-04-16T01:53:52.409Z,1020.25102449
2018-04-16T01:54:04.573Z,1020.21716061
2018-04-16T01:54:16.739Z,1020.21716061
2018-04-16T01:54:28.900Z,1020.21716061
2018-04-16T01:54:41.071Z,1020.21716061
2018-04-16T01:54:53.244Z,1020.21716061
2018-04-16T01:55:05.406Z,1020.25102449
2018-04-16T01:55:17.589Z,1020.25102449
2018-04-16T01:55:29.758Z,1020.25102449
2018-04-16T01:55:41.936Z,1020.25102449
2018-04-16T01:55:54.133Z,1020.25102449
2018-04-16T01:56:06.311Z,1020.31875225
2018-04-16T01:56:18.667Z,1020.31875225
2018-04-16T01:56:30.832Z,1020.31875225
2018-04-16T01:56:43.009Z,1020.31875225
2018-04-16T01:56:55.141Z,1020.31875225
2018-04-16T01:57:07.325Z,1020.28488837
2018-04-16T01:57:19.502Z,1020.28488837
2018-04-16T01:57:31.673Z,1020.28488837
2018-04-16T01:57:43.861Z,1020.28488837
2018-04-16T01:57:56.027Z,1020.28488837
2018-04-16T01:58:08.227Z,1020.28488837
2018-04-16T01:58:20.383Z,1020.28488837
2018-04-16T01:58:32.536Z,1020.28488837
2018-04-16T01:58:44.709Z,1020.28488837
2018-04-16T01:58:56.870Z,1020.28488837
2018-04-16T01:59:09.048Z,1020.18329673
2018-04-16T01:59:21.211Z,1020.18329673
2018-04-16T01:59:33.372Z,1020.18329673
2018-04-16T01:59:45.520Z,1020.18329673
2018-04-16T01:59:57.676Z,1020.18329673
2018-04-16T02:00:09.850Z,1020.21716061
2018-04-16T02:00:22.057Z,1020.21716061
2018-04-16T02:00:34.248Z,1020.21716061
2018-04-16T02:00:46.459Z,1020.21716061
2018-04-16T02:00:58.711Z,1020.21716061
2018-04-16T02:01:11.001Z,1020.31875225
2018-04-16T02:01:23.187Z,1020.31875225
2018-04-16T02:01:35.344Z,1020.31875225
2018-04-16T02:01:47.519Z,1020.31875225
2018-04-16T02:01:59.681Z,1020.31875225
2018-04-16T02:02:11.866Z,1020.28488837
2018-04-16T02:02:24.045Z,1020.28488837
2018-04-16T02:02:36.235Z,1020.28488837
2018-04-16T02:02:48.455Z,1020.28488837
2018-04-16T02:03:00.620Z,1020.28488837
2018-04-16T02:03:12.837Z,1020.28488837
2018-04-16T02:03:25.052Z,1020.28488837
2018-04-16T02:03:37.248Z,1020.28488837
2018-04-16T02:03:49.438Z,1020.28488837
2018-04-16T02:04:01.621Z,1020.21716061
2018-04-16T02:04:13.801Z,1020.21716061
2018-04-16T02:04:25.980Z,1020.21716061
2018-04-16T02:04:38.150Z,1020.21716061
2018-04-16T02:04:50.307Z,1020.21716061
2018-04-16T02:05:02.485Z,1020.18329673
2018-04-16T02:05:14.667Z,1020.18329673